首页
METAR-TAF:

METAR-TAF

机场 :

达喀尔-约夫-利奥波德·塞达尔·桑戈尔国际机场

達喀爾, 塞内加尔

纬度: 14-44N, 经度: 017-30W, 海拔: 27米

当前天气观测

该预报发布于1小时和6分钟前的16:00 UTC
风速10节,风向
温度 26°C
湿度 70%
气压 1012 hPa
能见度10公里或以上
1500米以下无云,无积雨云

METAR: GOOY 211600Z 36010KT CAVOK 26/20 Q1012

时间: 17:06 (17:06 UTC)

预报

该预报发布于5小时和36分钟前的11:30 UTC
预报有效从21日的 12点(UTC)到 22日的 18点(UTC)
风速10节,风向
能见度10公里或以上
1500米以下无云,无积雨云

TAF: GOOY 211130Z 2112/2218 01010KT CAVOK

超过4000个机场的气象观测和天气预报(METAR&TAF报告)。

可查询的气象台以黄色和红色小点在地图上表示。

将鼠标移到小点上方,可查看气象台名称。

然后点击查看天气观测和预报。

如需切换地图:点击带黑十字的绿色按钮放大地图;点击带横线的绿色按钮缩小地图;或者点击绿色箭头查看邻近地区的地图。


METAR-TAF: